sensor_id;sensor_type;location;lat;lon;timestamp;temperature;humidity
13346;DHT22;6742;48.036;15.780;2022-08-21T00:00:08;17.70;99.90
13346;DHT22;6742;48.036;15.780;2022-08-21T00:02:35;17.70;99.90
13346;DHT22;6742;48.036;15.780;2022-08-21T00:05:07;17.70;99.90
13346;DHT22;6742;48.036;15.780;2022-08-21T00:07:34;17.70;99.90
13346;DHT22;6742;48.036;15.780;2022-08-21T00:10:05;17.70;99.90
13346;DHT22;6742;48.036;15.780;2022-08-21T00:12:35;17.70;99.90
13346;DHT22;6742;48.036;15.780;2022-08-21T00:15:03;17.80;99.90
13346;DHT22;6742;48.036;15.780;2022-08-21T00:17:30;17.90;99.90
13346;DHT22;6742;48.036;15.780;2022-08-21T00:19:59;17.90;99.90
13346;DHT22;6742;48.036;15.780;2022-08-21T00:22:27;17.90;99.90
13346;DHT22;6742;48.036;15.780;2022-08-21T00:24:54;17.90;99.90
13346;DHT22;6742;48.036;15.780;2022-08-21T00:27:21;17.90;99.90
13346;DHT22;6742;48.036;15.780;2022-08-21T00:29:48;17.90;99.90
13346;DHT22;6742;48.036;15.780;2022-08-21T00:32:20;17.80;99.90
13346;DHT22;6742;48.036;15.780;2022-08-21T00:34:47;17.70;99.90
13346;DHT22;6742;48.036;15.780;2022-08-21T00:37:14;17.60;99.90
13346;DHT22;6742;48.036;15.780;2022-08-21T00:39:42;17.60;99.90
13346;DHT22;6742;48.036;15.780;2022-08-21T00:42:10;17.70;99.90
13346;DHT22;6742;48.036;15.780;2022-08-21T00:44:40;17.80;99.90
13346;DHT22;6742;48.036;15.780;2022-08-21T00:47:07;17.80;99.90
13346;DHT22;6742;48.036;15.780;2022-08-21T00:49:36;17.80;99.90
13346;DHT22;6742;48.036;15.780;2022-08-21T00:52:05;17.80;99.90
13346;DHT22;6742;48.036;15.780;2022-08-21T00:54:33;17.80;99.90
13346;DHT22;6742;48.036;15.780;2022-08-21T00:57:05;17.80;99.90
13346;DHT22;6742;48.036;15.780;2022-08-21T00:59:36;17.80;99.90
13346;DHT22;6742;48.036;15.780;2022-08-21T01:02:07;17.80;99.90
13346;DHT22;6742;48.036;15.780;2022-08-21T01:04:35;17.80;99.90
13346;DHT22;6742;48.036;15.780;2022-08-21T01:07:03;17.80;99.90
13346;DHT22;6742;48.036;15.780;2022-08-21T01:09:30;17.80;99.90
13346;DHT22;6742;48.036;15.780;2022-08-21T01:11:57;17.90;99.90
13346;DHT22;6742;48.036;15.780;2022-08-21T01:14:25;17.90;99.90
13346;DHT22;6742;48.036;15.780;2022-08-21T01:16:54;17.90;99.90
13346;DHT22;6742;48.036;15.780;2022-08-21T01:19:23;17.90;99.90
13346;DHT22;6742;48.036;15.780;2022-08-21T01:21:52;18.00;99.90
13346;DHT22;6742;48.036;15.780;2022-08-21T01:24:20;18.00;99.90
13346;DHT22;6742;48.036;15.780;2022-08-21T01:26:48;18.00;99.90
13346;DHT22;6742;48.036;15.780;2022-08-21T01:29:23;18.00;99.90
13346;DHT22;6742;48.036;15.780;2022-08-21T01:31:53;18.00;99.90
13346;DHT22;6742;48.036;15.780;2022-08-21T01:34:20;17.90;99.90
13346;DHT22;6742;48.036;15.780;2022-08-21T01:36:47;17.90;99.90
13346;DHT22;6742;48.036;15.780;2022-08-21T01:39:16;17.80;99.90
13346;DHT22;6742;48.036;15.780;2022-08-21T01:41:43;17.80;99.90
13346;DHT22;6742;48.036;15.780;2022-08-21T01:44:10;17.80;99.90
13346;DHT22;6742;48.036;15.780;2022-08-21T01:46:38;17.70;99.90
13346;DHT22;6742;48.036;15.780;2022-08-21T01:49:05;17.80;99.90
13346;DHT22;6742;48.036;15.780;2022-08-21T01:51:33;17.80;99.90
13346;DHT22;6742;48.036;15.780;2022-08-21T01:54:00;17.80;99.90
13346;DHT22;6742;48.036;15.780;2022-08-21T01:56:29;17.80;99.90
13346;DHT22;6742;48.036;15.780;2022-08-21T01:58:56;17.80;99.90
13346;DHT22;6742;48.036;15.780;2022-08-21T02:01:23;17.80;99.90
13346;DHT22;6742;48.036;15.780;2022-08-21T02:03:50;17.80;99.90
13346;DHT22;6742;48.036;15.780;2022-08-21T02:06:17;17.90;99.90
13346;DHT22;6742;48.036;15.780;2022-08-21T02:08:45;18.00;99.90
13346;DHT22;6742;48.036;15.780;2022-08-21T02:11:12;17.90;99.90
13346;DHT22;6742;48.036;15.780;2022-08-21T02:13:40;17.90;99.90
13346;DHT22;6742;48.036;15.780;2022-08-21T02:16:07;17.80;99.90
13346;DHT22;6742;48.036;15.780;2022-08-21T02:18:38;17.70;99.90
13346;DHT22;6742;48.036;15.780;2022-08-21T02:21:05;17.70;99.90
13346;DHT22;6742;48.036;15.780;2022-08-21T02:23:33;17.70;99.90
13346;DHT22;6742;48.036;15.780;2022-08-21T02:26:01;17.70;99.90
13346;DHT22;6742;48.036;15.780;2022-08-21T02:28:28;17.70;99.90
13346;DHT22;6742;48.036;15.780;2022-08-21T02:30:57;17.70;99.90
13346;DHT22;6742;48.036;15.780;2022-08-21T02:33:24;17.70;99.90
13346;DHT22;6742;48.036;15.780;2022-08-21T02:35:51;17.60;99.90
13346;DHT22;6742;48.036;15.780;2022-08-21T02:38:24;17.60;99.90
13346;DHT22;6742;48.036;15.780;2022-08-21T02:40:52;17.70;99.90
13346;DHT22;6742;48.036;15.780;2022-08-21T02:43:21;17.60;99.90
13346;DHT22;6742;48.036;15.780;2022-08-21T02:45:48;17.50;99.90
13346;DHT22;6742;48.036;15.780;2022-08-21T02:48:19;17.60;99.90
13346;DHT22;6742;48.036;15.780;2022-08-21T02:50:58;17.60;99.90
13346;DHT22;6742;48.036;15.780;2022-08-21T02:53:26;17.60;99.90
13346;DHT22;6742;48.036;15.780;2022-08-21T02:55:54;17.60;99.90
13346;DHT22;6742;48.036;15.780;2022-08-21T02:58:26;17.60;99.90
13346;DHT22;6742;48.036;15.780;2022-08-21T03:00:54;17.60;99.90
13346;DHT22;6742;48.036;15.780;2022-08-21T03:03:23;17.70;99.90
13346;DHT22;6742;48.036;15.780;2022-08-21T03:05:50;17.70;99.90
13346;DHT22;6742;48.036;15.780;2022-08-21T03:08:18;17.70;99.90
13346;DHT22;6742;48.036;15.780;2022-08-21T03:10:47;17.70;99.90
13346;DHT22;6742;48.036;15.780;2022-08-21T03:13:15;17.80;99.90
13346;DHT22;6742;48.036;15.780;2022-08-21T03:15:43;17.80;99.90
13346;DHT22;6742;48.036;15.780;2022-08-21T03:18:11;17.70;99.90
13346;DHT22;6742;48.036;15.780;2022-08-21T03:20:40;17.70;99.90
13346;DHT22;6742;48.036;15.780;2022-08-21T03:23:08;17.70;99.90
13346;DHT22;6742;48.036;15.780;2022-08-21T03:25:35;17.70;99.90
13346;DHT22;6742;48.036;15.780;2022-08-21T03:28:05;17.70;99.90
13346;DHT22;6742;48.036;15.780;2022-08-21T03:30:35;17.70;99.90
13346;DHT22;6742;48.036;15.780;2022-08-21T03:33:02;17.70;99.90
13346;DHT22;6742;48.036;15.780;2022-08-21T03:35:30;17.60;99.90
13346;DHT22;6742;48.036;15.780;2022-08-21T03:37:58;17.50;99.90
13346;DHT22;6742;48.036;15.780;2022-08-21T03:40:25;17.60;99.90
13346;DHT22;6742;48.036;15.780;2022-08-21T03:42:55;17.60;99.90
13346;DHT22;6742;48.036;15.780;2022-08-21T03:45:22;17.60;99.90
13346;DHT22;6742;48.036;15.780;2022-08-21T03:47:54;17.60;99.90
13346;DHT22;6742;48.036;15.780;2022-08-21T03:50:23;17.70;99.90
13346;DHT22;6742;48.036;15.780;2022-08-21T03:52:51;17.80;99.90
13346;DHT22;6742;48.036;15.780;2022-08-21T03:55:19;17.80;99.90
13346;DHT22;6742;48.036;15.780;2022-08-21T03:57:49;17.80;99.90
13346;DHT22;6742;48.036;15.780;2022-08-21T04:00:17;17.80;99.90
13346;DHT22;6742;48.036;15.780;2022-08-21T04:02:46;17.60;99.90
13346;DHT22;6742;48.036;15.780;2022-08-21T04:05:15;17.60;99.90
13346;DHT22;6742;48.036;15.780;2022-08-21T04:07:56;17.60;99.90
13346;DHT22;6742;48.036;15.780;2022-08-21T04:10:25;17.60;99.90
13346;DHT22;6742;48.036;15.780;2022-08-21T04:12:52;17.60;99.90
13346;DHT22;6742;48.036;15.780;2022-08-21T04:15:20;17.70;99.90
13346;DHT22;6742;48.036;15.780;2022-08-21T04:17:48;17.70;99.90
13346;DHT22;6742;48.036;15.780;2022-08-21T04:20:15;17.80;99.90
13346;DHT22;6742;48.036;15.780;2022-08-21T04:22:43;17.70;99.90
13346;DHT22;6742;48.036;15.780;2022-08-21T04:25:12;17.70;99.90
13346;DHT22;6742;48.036;15.780;2022-08-21T04:27:41;17.60;99.90
13346;DHT22;6742;48.036;15.780;2022-08-21T04:30:10;17.70;99.90
13346;DHT22;6742;48.036;15.780;2022-08-21T04:32:37;17.60;99.90
13346;DHT22;6742;48.036;15.780;2022-08-21T04:35:08;17.60;99.90
13346;DHT22;6742;48.036;15.780;2022-08-21T04:37:35;17.60;99.90
13346;DHT22;6742;48.036;15.780;2022-08-21T04:40:03;17.60;99.90
13346;DHT22;6742;48.036;15.780;2022-08-21T04:42:30;17.60;99.90
13346;DHT22;6742;48.036;15.780;2022-08-21T04:44:59;17.60;99.90
13346;DHT22;6742;48.036;15.780;2022-08-21T04:47:26;17.60;99.90
13346;DHT22;6742;48.036;15.780;2022-08-21T04:49:53;17.60;99.90
13346;DHT22;6742;48.036;15.780;2022-08-21T04:52:25;17.60;99.90
13346;DHT22;6742;48.036;15.780;2022-08-21T04:54:52;17.60;99.90
13346;DHT22;6742;48.036;15.780;2022-08-21T04:57:19;17.60;99.90
13346;DHT22;6742;48.036;15.780;2022-08-21T04:59:49;17.70;99.90
13346;DHT22;6742;48.036;15.780;2022-08-21T05:02:18;17.60;99.90
13346;DHT22;6742;48.036;15.780;2022-08-21T05:04:51;17.60;99.90
13346;DHT22;6742;48.036;15.780;2022-08-21T05:07:21;17.60;99.90
13346;DHT22;6742;48.036;15.780;2022-08-21T05:09:49;17.60;99.90
13346;DHT22;6742;48.036;15.780;2022-08-21T05:12:17;17.60;99.90
13346;DHT22;6742;48.036;15.780;2022-08-21T05:14:44;17.60;99.90
13346;DHT22;6742;48.036;15.780;2022-08-21T05:17:11;17.60;99.90
13346;DHT22;6742;48.036;15.780;2022-08-21T05:19:39;17.60;99.90
13346;DHT22;6742;48.036;15.780;2022-08-21T05:22:06;17.60;99.90
13346;DHT22;6742;48.036;15.780;2022-08-21T05:24:35;17.60;99.90
13346;DHT22;6742;48.036;15.780;2022-08-21T05:27:02;17.60;99.90
13346;DHT22;6742;48.036;15.780;2022-08-21T05:29:29;17.50;99.90
13346;DHT22;6742;48.036;15.780;2022-08-21T05:31:56;17.50;99.90
13346;DHT22;6742;48.036;15.780;2022-08-21T05:34:23;17.40;99.90
13346;DHT22;6742;48.036;15.780;2022-08-21T05:36:52;17.40;99.90
13346;DHT22;6742;48.036;15.780;2022-08-21T05:39:19;17.50;99.90
13346;DHT22;6742;48.036;15.780;2022-08-21T05:41:46;17.60;99.90
13346;DHT22;6742;48.036;15.780;2022-08-21T05:44:13;17.60;99.90
13346;DHT22;6742;48.036;15.780;2022-08-21T05:46:41;17.70;99.90
13346;DHT22;6742;48.036;15.780;2022-08-21T05:49:08;17.70;99.90
13346;DHT22;6742;48.036;15.780;2022-08-21T05:51:35;17.70;99.90
13346;DHT22;6742;48.036;15.780;2022-08-21T05:54:03;17.70;99.90
13346;DHT22;6742;48.036;15.780;2022-08-21T05:56:30;17.70;99.90
13346;DHT22;6742;48.036;15.780;2022-08-21T05:58:57;17.70;99.90
13346;DHT22;6742;48.036;15.780;2022-08-21T06:01:24;17.60;99.90
13346;DHT22;6742;48.036;15.780;2022-08-21T06:03:51;17.60;99.90
13346;DHT22;6742;48.036;15.780;2022-08-21T06:06:18;17.60;99.90
13346;DHT22;6742;48.036;15.780;2022-08-21T06:08:45;17.50;99.90
13346;DHT22;6742;48.036;15.780;2022-08-21T06:11:13;17.40;99.90
13346;DHT22;6742;48.036;15.780;2022-08-21T06:13:40;17.40;99.90
13346;DHT22;6742;48.036;15.780;2022-08-21T06:16:09;17.30;99.90
13346;DHT22;6742;48.036;15.780;2022-08-21T06:18:37;17.30;99.90
13346;DHT22;6742;48.036;15.780;2022-08-21T06:21:05;17.30;99.90
13346;DHT22;6742;48.036;15.780;2022-08-21T06:23:32;17.40;99.90
13346;DHT22;6742;48.036;15.780;2022-08-21T06:25:59;17.40;99.90
13346;DHT22;6742;48.036;15.780;2022-08-21T06:28:28;17.30;99.90
13346;DHT22;6742;48.036;15.780;2022-08-21T06:30:55;17.50;99.90
13346;DHT22;6742;48.036;15.780;2022-08-21T06:33:22;17.50;99.90
13346;DHT22;6742;48.036;15.780;2022-08-21T06:35:50;17.60;99.90
13346;DHT22;6742;48.036;15.780;2022-08-21T06:38:20;17.60;99.90
13346;DHT22;6742;48.036;15.780;2022-08-21T06:40:47;17.70;99.90
13346;DHT22;6742;48.036;15.780;2022-08-21T06:43:16;17.60;99.90
13346;DHT22;6742;48.036;15.780;2022-08-21T06:45:44;17.60;99.90
13346;DHT22;6742;48.036;15.780;2022-08-21T06:48:15;17.60;99.90
13346;DHT22;6742;48.036;15.780;2022-08-21T06:50:42;17.60;99.90
13346;DHT22;6742;48.036;15.780;2022-08-21T06:53:11;17.60;99.90
13346;DHT22;6742;48.036;15.780;2022-08-21T06:55:39;17.60;99.90
13346;DHT22;6742;48.036;15.780;2022-08-21T06:58:06;17.60;99.90
13346;DHT22;6742;48.036;15.780;2022-08-21T07:00:33;17.70;99.90
13346;DHT22;6742;48.036;15.780;2022-08-21T07:03:01;17.60;99.90
13346;DHT22;6742;48.036;15.780;2022-08-21T07:05:29;17.50;99.90
13346;DHT22;6742;48.036;15.780;2022-08-21T07:07:57;17.50;99.90
13346;DHT22;6742;48.036;15.780;2022-08-21T07:10:24;17.50;99.90
13346;DHT22;6742;48.036;15.780;2022-08-21T07:12:51;17.60;99.90
13346;DHT22;6742;48.036;15.780;2022-08-21T07:15:19;17.50;99.90
13346;DHT22;6742;48.036;15.780;2022-08-21T07:17:46;17.60;99.90
13346;DHT22;6742;48.036;15.780;2022-08-21T07:20:15;17.60;99.90
13346;DHT22;6742;48.036;15.780;2022-08-21T07:22:42;17.70;99.90
13346;DHT22;6742;48.036;15.780;2022-08-21T07:25:09;17.70;99.90
13346;DHT22;6742;48.036;15.780;2022-08-21T07:27:36;17.70;99.90
13346;DHT22;6742;48.036;15.780;2022-08-21T07:30:04;17.70;99.90
13346;DHT22;6742;48.036;15.780;2022-08-21T07:32:31;17.80;99.90
13346;DHT22;6742;48.036;15.780;2022-08-21T07:34:58;17.80;99.90
13346;DHT22;6742;48.036;15.780;2022-08-21T07:37:26;17.80;99.90
13346;DHT22;6742;48.036;15.780;2022-08-21T07:39:53;17.90;99.90
13346;DHT22;6742;48.036;15.780;2022-08-21T07:42:22;17.90;99.90
13346;DHT22;6742;48.036;15.780;2022-08-21T07:44:49;17.90;99.90
13346;DHT22;6742;48.036;15.780;2022-08-21T07:47:15;18.00;99.90
13346;DHT22;6742;48.036;15.780;2022-08-21T07:49:42;18.00;99.90
13346;DHT22;6742;48.036;15.780;2022-08-21T07:52:10;18.00;99.90
13346;DHT22;6742;48.036;15.780;2022-08-21T07:54:38;18.10;99.90
13346;DHT22;6742;48.036;15.780;2022-08-21T07:57:05;18.20;99.90
13346;DHT22;6742;48.036;15.780;2022-08-21T07:59:32;18.10;99.90
13346;DHT22;6742;48.036;15.780;2022-08-21T08:01:59;18.20;99.90
13346;DHT22;6742;48.036;15.780;2022-08-21T08:04:26;18.20;99.90
13346;DHT22;6742;48.036;15.780;2022-08-21T08:06:53;18.10;99.90
13346;DHT22;6742;48.036;15.780;2022-08-21T08:09:20;18.10;99.90
13346;DHT22;6742;48.036;15.780;2022-08-21T08:11:49;18.10;99.90
13346;DHT22;6742;48.036;15.780;2022-08-21T08:14:16;18.00;99.90
13346;DHT22;6742;48.036;15.780;2022-08-21T08:16:43;18.10;99.90
13346;DHT22;6742;48.036;15.780;2022-08-21T08:19:10;18.00;99.90
13346;DHT22;6742;48.036;15.780;2022-08-21T08:21:36;18.00;99.90
13346;DHT22;6742;48.036;15.780;2022-08-21T08:24:07;18.00;99.90
13346;DHT22;6742;48.036;15.780;2022-08-21T08:26:34;18.00;99.90
13346;DHT22;6742;48.036;15.780;2022-08-21T08:29:02;18.00;99.90
13346;DHT22;6742;48.036;15.780;2022-08-21T08:31:29;18.10;99.90
13346;DHT22;6742;48.036;15.780;2022-08-21T08:33:56;18.20;99.90
13346;DHT22;6742;48.036;15.780;2022-08-21T08:36:31;18.20;99.90
13346;DHT22;6742;48.036;15.780;2022-08-21T08:38:58;18.30;99.90
13346;DHT22;6742;48.036;15.780;2022-08-21T08:41:26;18.30;99.90
13346;DHT22;6742;48.036;15.780;2022-08-21T08:43:55;18.30;99.90
13346;DHT22;6742;48.036;15.780;2022-08-21T08:46:31;18.30;99.90
13346;DHT22;6742;48.036;15.780;2022-08-21T08:49:02;18.30;99.90
13346;DHT22;6742;48.036;15.780;2022-08-21T08:51:39;18.20;99.90
13346;DHT22;6742;48.036;15.780;2022-08-21T08:54:10;18.20;99.90
13346;DHT22;6742;48.036;15.780;2022-08-21T08:56:40;18.20;99.90
13346;DHT22;6742;48.036;15.780;2022-08-21T08:59:13;18.30;99.90
13346;DHT22;6742;48.036;15.780;2022-08-21T09:01:43;18.30;99.90
13346;DHT22;6742;48.036;15.780;2022-08-21T09:04:11;18.30;99.90
13346;DHT22;6742;48.036;15.780;2022-08-21T09:06:57;18.30;99.90
13346;DHT22;6742;48.036;15.780;2022-08-21T09:09:34;18.30;99.90
13346;DHT22;6742;48.036;15.780;2022-08-21T09:12:12;18.30;99.90
13346;DHT22;6742;48.036;15.780;2022-08-21T09:14:50;18.30;99.90
13346;DHT22;6742;48.036;15.780;2022-08-21T09:17:29;18.30;99.90
13346;DHT22;6742;48.036;15.780;2022-08-21T09:20:08;18.40;99.90
13346;DHT22;6742;48.036;15.780;2022-08-21T09:22:43;18.40;99.90
13346;DHT22;6742;48.036;15.780;2022-08-21T09:25:18;18.50;99.90
13346;DHT22;6742;48.036;15.780;2022-08-21T09:27:47;18.40;99.90
13346;DHT22;6742;48.036;15.780;2022-08-21T09:30:17;18.50;99.90
13346;DHT22;6742;48.036;15.780;2022-08-21T09:32:46;18.40;99.90
13346;DHT22;6742;48.036;15.780;2022-08-21T09:35:14;18.40;99.90
13346;DHT22;6742;48.036;15.780;2022-08-21T09:37:49;18.30;99.90
13346;DHT22;6742;48.036;15.780;2022-08-21T09:40:33;18.30;99.90
13346;DHT22;6742;48.036;15.780;2022-08-21T09:43:03;18.40;99.90
13346;DHT22;6742;48.036;15.780;2022-08-21T09:45:31;18.50;99.90
13346;DHT22;6742;48.036;15.780;2022-08-21T09:48:10;18.60;99.90
13346;DHT22;6742;48.036;15.780;2022-08-21T09:50:37;18.70;99.90
13346;DHT22;6742;48.036;15.780;2022-08-21T09:53:16;18.60;99.90
13346;DHT22;6742;48.036;15.780;2022-08-21T09:55:49;18.70;99.90
13346;DHT22;6742;48.036;15.780;2022-08-21T09:58:46;18.70;99.90
13346;DHT22;6742;48.036;15.780;2022-08-21T10:01:21;18.80;99.90
13346;DHT22;6742;48.036;15.780;2022-08-21T10:04:02;19.00;99.90
13346;DHT22;6742;48.036;15.780;2022-08-21T10:06:29;19.20;99.90
13346;DHT22;6742;48.036;15.780;2022-08-21T10:09:05;19.20;99.90
13346;DHT22;6742;48.036;15.780;2022-08-21T10:11:34;19.10;99.90
13346;DHT22;6742;48.036;15.780;2022-08-21T10:14:08;19.10;99.90
13346;DHT22;6742;48.036;15.780;2022-08-21T10:16:46;19.20;99.90
13346;DHT22;6742;48.036;15.780;2022-08-21T10:19:24;19.10;99.90
13346;DHT22;6742;48.036;15.780;2022-08-21T10:22:00;19.10;99.90
13346;DHT22;6742;48.036;15.780;2022-08-21T10:24:31;19.10;99.90
13346;DHT22;6742;48.036;15.780;2022-08-21T10:27:09;19.00;99.90
13346;DHT22;6742;48.036;15.780;2022-08-21T10:29:47;19.00;99.90
13346;DHT22;6742;48.036;15.780;2022-08-21T10:32:27;19.10;99.90
13346;DHT22;6742;48.036;15.780;2022-08-21T10:35:05;19.20;99.90
13346;DHT22;6742;48.036;15.780;2022-08-21T10:37:44;19.20;99.90
13346;DHT22;6742;48.036;15.780;2022-08-21T10:40:22;19.40;99.90
13346;DHT22;6742;48.036;15.780;2022-08-21T10:43:02;19.40;99.90
13346;DHT22;6742;48.036;15.780;2022-08-21T10:45:38;19.40;99.90
13346;DHT22;6742;48.036;15.780;2022-08-21T10:48:16;19.30;99.90
13346;DHT22;6742;48.036;15.780;2022-08-21T10:50:50;19.40;99.90
13346;DHT22;6742;48.036;15.780;2022-08-21T10:53:39;19.40;99.90
13346;DHT22;6742;48.036;15.780;2022-08-21T10:56:14;19.40;99.90
13346;DHT22;6742;48.036;15.780;2022-08-21T10:58:48;19.40;99.90
13346;DHT22;6742;48.036;15.780;2022-08-21T11:01:22;19.40;99.90
13346;DHT22;6742;48.036;15.780;2022-08-21T11:03:53;19.40;99.90
13346;DHT22;6742;48.036;15.780;2022-08-21T11:06:25;19.40;99.90
13346;DHT22;6742;48.036;15.780;2022-08-21T11:08:55;19.40;99.90
13346;DHT22;6742;48.036;15.780;2022-08-21T11:11:27;19.50;99.90
13346;DHT22;6742;48.036;15.780;2022-08-21T11:13:59;19.50;99.90
13346;DHT22;6742;48.036;15.780;2022-08-21T11:16:37;19.60;99.90
13346;DHT22;6742;48.036;15.780;2022-08-21T11:19:09;19.60;99.90
13346;DHT22;6742;48.036;15.780;2022-08-21T11:21:44;19.60;99.90
13346;DHT22;6742;48.036;15.780;2022-08-21T11:24:21;19.50;99.90
13346;DHT22;6742;48.036;15.780;2022-08-21T11:26:59;19.60;99.90
13346;DHT22;6742;48.036;15.780;2022-08-21T11:29:30;19.50;99.90
13346;DHT22;6742;48.036;15.780;2022-08-21T11:34:54;19.50;99.90
13346;DHT22;6742;48.036;15.780;2022-08-21T11:37:41;19.50;99.90
13346;DHT22;6742;48.036;15.780;2022-08-21T11:40:16;19.40;99.90
13346;DHT22;6742;48.036;15.780;2022-08-21T11:42:50;19.30;99.90
13346;DHT22;6742;48.036;15.780;2022-08-21T11:45:25;19.30;99.90
13346;DHT22;6742;48.036;15.780;2022-08-21T11:48:04;19.30;99.90
13346;DHT22;6742;48.036;15.780;2022-08-21T11:50:35;19.30;99.90
13346;DHT22;6742;48.036;15.780;2022-08-21T11:53:09;19.30;99.90
13346;DHT22;6742;48.036;15.780;2022-08-21T11:55:41;19.30;99.90
13346;DHT22;6742;48.036;15.780;2022-08-21T11:58:14;19.20;99.90
13346;DHT22;6742;48.036;15.780;2022-08-21T12:00:45;19.20;99.90
13346;DHT22;6742;48.036;15.780;2022-08-21T12:03:15;19.30;99.90
13346;DHT22;6742;48.036;15.780;2022-08-21T12:05:51;19.40;99.90
13346;DHT22;6742;48.036;15.780;2022-08-21T12:08:31;19.40;99.90
13346;DHT22;6742;48.036;15.780;2022-08-21T12:11:01;19.30;99.90
13346;DHT22;6742;48.036;15.780;2022-08-21T12:13:31;19.30;99.90
13346;DHT22;6742;48.036;15.780;2022-08-21T12:16:06;19.30;99.90
13346;DHT22;6742;48.036;15.780;2022-08-21T12:18:34;19.40;99.90
13346;DHT22;6742;48.036;15.780;2022-08-21T12:21:17;19.40;99.90
13346;DHT22;6742;48.036;15.780;2022-08-21T12:23:49;19.40;99.90
13346;DHT22;6742;48.036;15.780;2022-08-21T12:26:28;19.40;99.90
13346;DHT22;6742;48.036;15.780;2022-08-21T12:29:16;19.40;99.90
13346;DHT22;6742;48.036;15.780;2022-08-21T12:31:56;19.40;99.90
13346;DHT22;6742;48.036;15.780;2022-08-21T12:34:34;19.40;99.90
13346;DHT22;6742;48.036;15.780;2022-08-21T12:37:04;19.50;99.90
13346;DHT22;6742;48.036;15.780;2022-08-21T12:39:36;19.40;99.90
13346;DHT22;6742;48.036;15.780;2022-08-21T12:42:09;19.20;99.90
13346;DHT22;6742;48.036;15.780;2022-08-21T12:44:43;19.10;99.90
13346;DHT22;6742;48.036;15.780;2022-08-21T12:47:16;19.10;99.90
13346;DHT22;6742;48.036;15.780;2022-08-21T12:49:52;19.10;99.90
13346;DHT22;6742;48.036;15.780;2022-08-21T12:52:23;19.10;99.90
13346;DHT22;6742;48.036;15.780;2022-08-21T12:54:52;19.00;99.90
13346;DHT22;6742;48.036;15.780;2022-08-21T12:57:21;18.90;99.90
13346;DHT22;6742;48.036;15.780;2022-08-21T12:59:56;18.90;99.90
13346;DHT22;6742;48.036;15.780;2022-08-21T13:02:26;18.90;99.90
13346;DHT22;6742;48.036;15.780;2022-08-21T13:04:58;18.80;99.90
13346;DHT22;6742;48.036;15.780;2022-08-21T13:07:30;18.90;99.90
13346;DHT22;6742;48.036;15.780;2022-08-21T13:10:03;18.90;99.90
13346;DHT22;6742;48.036;15.780;2022-08-21T13:12:31;19.10;99.90
13346;DHT22;6742;48.036;15.780;2022-08-21T13:15:02;19.10;99.90
13346;DHT22;6742;48.036;15.780;2022-08-21T13:17:34;19.10;99.90
13346;DHT22;6742;48.036;15.780;2022-08-21T13:20:06;19.20;99.90
13346;DHT22;6742;48.036;15.780;2022-08-21T13:22:42;19.20;99.90
13346;DHT22;6742;48.036;15.780;2022-08-21T13:25:13;19.30;99.90
13346;DHT22;6742;48.036;15.780;2022-08-21T13:27:42;19.30;99.90
13346;DHT22;6742;48.036;15.780;2022-08-21T13:30:12;19.30;99.90
13346;DHT22;6742;48.036;15.780;2022-08-21T13:32:46;19.20;99.90
13346;DHT22;6742;48.036;15.780;2022-08-21T13:35:17;19.30;99.90
13346;DHT22;6742;48.036;15.780;2022-08-21T13:37:49;19.30;99.90
13346;DHT22;6742;48.036;15.780;2022-08-21T13:40:20;19.20;99.90
13346;DHT22;6742;48.036;15.780;2022-08-21T13:42:48;19.20;99.90
13346;DHT22;6742;48.036;15.780;2022-08-21T13:45:20;19.20;99.90
13346;DHT22;6742;48.036;15.780;2022-08-21T13:47:48;19.30;99.90
13346;DHT22;6742;48.036;15.780;2022-08-21T13:50:20;19.30;99.90
13346;DHT22;6742;48.036;15.780;2022-08-21T13:52:55;19.30;99.90
13346;DHT22;6742;48.036;15.780;2022-08-21T13:55:24;19.40;99.90
13346;DHT22;6742;48.036;15.780;2022-08-21T13:57:59;19.50;99.90
13346;DHT22;6742;48.036;15.780;2022-08-21T14:00:29;19.60;99.90
13346;DHT22;6742;48.036;15.780;2022-08-21T14:03:04;19.60;99.90
13346;DHT22;6742;48.036;15.780;2022-08-21T14:05:33;19.70;99.90
13346;DHT22;6742;48.036;15.780;2022-08-21T14:08:05;19.70;99.90
13346;DHT22;6742;48.036;15.780;2022-08-21T14:10:37;19.70;99.90
13346;DHT22;6742;48.036;15.780;2022-08-21T14:13:14;19.70;99.90
13346;DHT22;6742;48.036;15.780;2022-08-21T14:15:57;19.70;99.90
13346;DHT22;6742;48.036;15.780;2022-08-21T14:18:24;19.60;99.90
13346;DHT22;6742;48.036;15.780;2022-08-21T14:20:57;19.60;99.90
13346;DHT22;6742;48.036;15.780;2022-08-21T14:23:29;19.60;99.90
13346;DHT22;6742;48.036;15.780;2022-08-21T14:26:01;19.50;99.90
13346;DHT22;6742;48.036;15.780;2022-08-21T14:28:30;19.50;99.90
13346;DHT22;6742;48.036;15.780;2022-08-21T14:30:59;19.50;99.90
13346;DHT22;6742;48.036;15.780;2022-08-21T14:33:38;19.60;99.90
13346;DHT22;6742;48.036;15.780;2022-08-21T14:36:05;19.60;99.90
13346;DHT22;6742;48.036;15.780;2022-08-21T14:38:35;19.60;99.90
13346;DHT22;6742;48.036;15.780;2022-08-21T14:41:17;19.60;99.90
13346;DHT22;6742;48.036;15.780;2022-08-21T14:43:45;19.60;99.90
13346;DHT22;6742;48.036;15.780;2022-08-21T14:46:14;19.70;99.90
13346;DHT22;6742;48.036;15.780;2022-08-21T14:48:44;19.60;99.90
13346;DHT22;6742;48.036;15.780;2022-08-21T14:51:12;19.60;99.90
13346;DHT22;6742;48.036;15.780;2022-08-21T14:53:39;19.60;99.90
13346;DHT22;6742;48.036;15.780;2022-08-21T14:56:07;19.50;99.90
13346;DHT22;6742;48.036;15.780;2022-08-21T14:58:38;19.60;99.90
13346;DHT22;6742;48.036;15.780;2022-08-21T15:01:06;19.50;99.90
13346;DHT22;6742;48.036;15.780;2022-08-21T15:03:35;19.50;99.90
13346;DHT22;6742;48.036;15.780;2022-08-21T15:06:03;19.60;99.90
13346;DHT22;6742;48.036;15.780;2022-08-21T15:08:34;19.60;99.90
13346;DHT22;6742;48.036;15.780;2022-08-21T15:11:01;19.50;99.90
13346;DHT22;6742;48.036;15.780;2022-08-21T15:13:30;19.60;99.90
13346;DHT22;6742;48.036;15.780;2022-08-21T15:15:57;19.60;99.90
13346;DHT22;6742;48.036;15.780;2022-08-21T15:18:25;19.50;99.90
13346;DHT22;6742;48.036;15.780;2022-08-21T15:20:53;19.50;99.90
13346;DHT22;6742;48.036;15.780;2022-08-21T15:23:20;19.50;99.90
13346;DHT22;6742;48.036;15.780;2022-08-21T15:25:48;19.60;99.90
13346;DHT22;6742;48.036;15.780;2022-08-21T15:28:17;19.60;99.90
13346;DHT22;6742;48.036;15.780;2022-08-21T15:30:48;19.60;99.90
13346;DHT22;6742;48.036;15.780;2022-08-21T15:33:19;19.60;99.90
13346;DHT22;6742;48.036;15.780;2022-08-21T15:35:47;19.60;99.90
13346;DHT22;6742;48.036;15.780;2022-08-21T15:38:16;19.60;99.90
13346;DHT22;6742;48.036;15.780;2022-08-21T15:40:44;19.60;99.90
13346;DHT22;6742;48.036;15.780;2022-08-21T15:43:20;19.60;99.90
13346;DHT22;6742;48.036;15.780;2022-08-21T15:45:50;19.60;99.90
13346;DHT22;6742;48.036;15.780;2022-08-21T15:48:17;19.50;99.90
13346;DHT22;6742;48.036;15.780;2022-08-21T15:50:44;19.60;99.90